Stations météo

réclame
Mon MeteoGroup
Uccle, Belgique (6447): Température de l'air & dewpoint: 25.09.2020 04:00:00 - 01.10.2020 04:00:00 (CEST)Uccle, Belgique (6447): Vitesse du vent & gusts: 25.09.2020 04:00:00 - 01.10.2020 04:00:00 (CEST)Uccle, Belgique (6447): Direction du vent: 25.09.2020 04:00:00 - 01.10.2020 04:00:00 (CEST)Uccle, Belgique (6447): reduced air pressure: 25.09.2020 04:00:00 - 01.10.2020 04:00:00 (CEST)Uccle, Belgique (6447): Ensoleillement: 25.09.2020 04:00:00 - 01.10.2020 04:00:00 (CEST)Uccle, Belgique (6447): Quantités de précipitations: 25.09.2020 04:00:00 - 01.10.2020 04:00:00 (CEST)
Date & Time tt [°C] td [°C] ff [km/h] ff [knt] fx [km/h] fx [knt] dd ppp [hPa] sd [min] rr [mm]
01.10.2020 04:00:00 14,9 12,7 20 11 29 15 SE 1004,5 0 0,0
01.10.2020 03:00:00 15,1 12,8 19 10 29 16 SSE 1005,3 0 0,0
01.10.2020 02:00:00 15,1 12,7 18 10 29 16 SSE 1006,4 0 0,0
01.10.2020 01:00:00 15,3 12,8 16 8 26 14 SSE 1007,2 0 0,0
01.10.2020 00:00:00 15,1 12,9 16 9 26 14 SE 1008,0 0 0,0
30.09.2020 23:00:00 15,5 13,0 16 9 24 13 SSE 1008,8 0 0,0
30.09.2020 22:00:00 15,7 12,8 16 9 27 15 SSE 1009,3 0 0,0
30.09.2020 21:00:00 16,1 12,8 16 9 30 16 SSE 1009,7 0 0,0
30.09.2020 20:00:00 16,2 13,1 14 8 24 13 SE 1009,9 0 0,0
30.09.2020 19:00:00 17,1 12,8 15 8 30 16 SSE 1010,5 0 0,0
30.09.2020 18:00:00 18,4 12,6 13 7 28 15 SSE 1010,8 10 0,0
30.09.2020 17:00:00 18,6 12,6 18 10 29 15 S 1011,3 0 0,0
30.09.2020 16:00:00 18,2 13,1 11 6 31 17 S 1011,9 0 0,0
30.09.2020 15:00:00 18,7 12,9 16 9 28 15 S 1012,1 14 0,0
30.09.2020 14:00:00 19,4 13,8 14 8 34 18 S 1012,8 28 0,1
30.09.2020 13:00:00 17,6 13,3 15 8 31 17 S 1013,4 16 0,0
30.09.2020 12:00:00 17,5 13,6 16 8 35 19 SSW 1013,9 5 0,0
30.09.2020 11:00:00 16,7 13,9 15 8 29 15 S 1014,3 5 0,0
30.09.2020 10:00:00 15,6 14,1 17 9 25 13 SSE 1014,5 0 0,0
30.09.2020 09:00:00 14,7 13,6 14 7 20 11 SSE 1014,7 0 0,0
30.09.2020 08:00:00 13,9 13,0 11 6 16 9 SSE 1014,7 0 0,0
30.09.2020 07:00:00 13,7 12,9 11 6 18 10 S 1015,1 0 0,0
30.09.2020 06:00:00 12,8 12,0 10 6 17 9 SSE 1015,2 0 0,0
30.09.2020 05:00:00 13,3 12,2 6 4 11 6 S 1015,7 0 0,0
30.09.2020 04:00:00 13,8 12,5 5 3 14 7 SSW 1016,3 0 0,0
30.09.2020 03:00:00 14,0 12,8 9 5 14 7 S 1016,4 0 0,0
30.09.2020 02:00:00 13,7 12,6 7 4 11 6 S 1016,8 0 0,0
30.09.2020 01:00:00 13,4 12,4 6 3 12 7 SW 1017,2 0 0,0
30.09.2020 00:00:00 13,5 12,5 7 4 12 6 SW 1017,2 0 0,0
29.09.2020 23:00:00 15,0 13,4 7 4 16 8 SW 1017,4 0 0,0
29.09.2020 22:00:00 15,9 14,4 8 4 17 9 WSW 1017,2 0 0,0
29.09.2020 21:00:00 15,9 14,7 10 5 15 8 S 1017,0 0 0,0
29.09.2020 20:00:00 16,0 14,7 7 4 15 8 S 1016,8 0 0,0
29.09.2020 19:00:00 16,2 14,7 7 4 15 8 S 1016,6 0 0,0
29.09.2020 18:00:00 16,4 14,4 10 5 19 10 SSW 1016,6 0 0,0
29.09.2020 17:00:00 17,0 14,0 12 6 20 11 SSW 1016,6 0 0,0
29.09.2020 16:00:00 17,2 13,2 8 5 20 11 SW 1016,6 2 0,0
29.09.2020 15:00:00 17,4 12,6 9 5 24 13 SW 1016,9 39 0,0
29.09.2020 14:00:00 16,1 12,2 11 6 26 14 WSW 1017,2 48 0,0
29.09.2020 13:00:00 15,3 12,1 8 5 23 12 WSW 1017,2 46 0,0
29.09.2020 12:00:00 15,6 12,5 9 5 18 10 SSW 1017,0 57 0,0
29.09.2020 11:00:00 14,2 11,8 6 3 14 8 SW 1016,9 60 0,0
29.09.2020 10:00:00 11,9 10,3 6 4 12 6 WSW 1016,4 60 0,0
29.09.2020 09:00:00 10,3 9,3 5 3 10 5 SW 1016,2 18 0,0
29.09.2020 08:00:00 10,7 9,6 4 2 11 6 SW 1015,7 0 0,0
29.09.2020 07:00:00 11,1 10,0 6 3 14 8 WSW 1015,3 0 0,0
29.09.2020 06:00:00 11,8 10,7 8 5 15 8 WSW 1015,0 0 0,0
29.09.2020 05:00:00 12,0 11,0 9 5 16 9 WSW 1014,7 0 0,0
29.09.2020 04:00:00 12,2 11,2 10 5 18 10 WSW 1014,5 0 0,4
29.09.2020 03:00:00 12,6 11,9 9 5 17 9 W 1014,2 0 1,1
29.09.2020 02:00:00 13,0 12,3 7 4 23 12 W 1013,8 0 1,1
29.09.2020 01:00:00 13,3 12,5 11 6 25 14 W 1013,8 0 0,4
29.09.2020 00:00:00 13,5 12,6 12 6 25 14 W 1013,5 0 0,1
28.09.2020 23:00:00 13,5 12,7 11 6 26 14 W 1013,2 0 0,1
28.09.2020 22:00:00 13,5 12,8 12 6 32 17 WNW 1012,6 0 0,2
28.09.2020 21:00:00 13,7 12,8 13 7 31 17 WNW 1012,2 0 0,0
28.09.2020 20:00:00 13,9 13,1 14 8 28 15 WNW 1011,3 0 0,2
28.09.2020 19:00:00 14,3 13,5 15 8 27 15 WNW 1010,5 0 1,1
28.09.2020 18:00:00 14,8 14,0 14 8 34 18 WNW 1009,7 0 1,1
28.09.2020 17:00:00 15,0 14,4 14 7 27 15 NW 1009,3 0 1,4
28.09.2020 16:00:00 13,2 12,7 7 4 10 6 W 1009,0 0 1,1
28.09.2020 15:00:00 12,1 11,4 6 4 16 9 SSW 1009,1 0 1,8
28.09.2020 14:00:00 11,3 10,6 7 4 19 11 S 1009,4 0 1,2
28.09.2020 13:00:00 11,3 10,4 11 6 22 12 SSW 1009,3 0 1,5
28.09.2020 12:00:00 11,3 10,4 14 7 26 14 SSW 1009,1 0 1,2
28.09.2020 11:00:00 11,8 11,0 13 7 22 12 S 1009,0 0 3,1
28.09.2020 10:00:00 11,7 10,9 10 6 19 11 SSW 1008,9 0 1,7
28.09.2020 09:00:00 11,8 11,0 10 5 16 9 SSW 1009,0 0 3,5
28.09.2020 08:00:00 11,8 10,9 11 6 16 9 SSW 1008,5 0 0,9
28.09.2020 07:00:00 11,8 10,8 5 3 10 5 SSW 1008,5 0 0,1
28.09.2020 06:00:00 11,8 10,7 5 3 10 5 WSW 1008,4 0 0,0
28.09.2020 05:00:00 11,7 10,5 5 3 8 4 SSW 1008,6 0 0,0
28.09.2020 04:00:00 11,7 10,1 4 2 6 4 SW 1008,8 0 0,0
28.09.2020 03:00:00 11,7 10,2 4 2 6 3 SSW 1008,7 0 0,0
28.09.2020 02:00:00 11,7 9,9 4 2 7 4 SSW 1008,7 0 0,0
28.09.2020 01:00:00 11,7 10,0 4 2 5 3 S 1008,8 0 0,0
28.09.2020 00:00:00 11,9 10,2 4 2 7 4 S 1008,5 0 0,0
27.09.2020 23:00:00 12,1 10,0 4 2 6 4 WSW 1008,3 0 0,0
27.09.2020 22:00:00 12,2 10,1 4 2 6 3 ESE 1007,9 0 0,0
27.09.2020 21:00:00 12,5 10,2 4 2 8 4 ESE 1007,4 0 0,1
27.09.2020 20:00:00 13,4 9,7 7 4 16 9 NE 1007,1 0 0,0
27.09.2020 19:00:00 13,9 9,6 9 5 20 11 NNE 1006,6 0 0,0
27.09.2020 18:00:00 14,2 9,6 11 6 21 12 NNE 1005,9 0 0,0
27.09.2020 17:00:00 14,5 9,5 10 5 19 11 NNE 1005,3 0 0,0
27.09.2020 16:00:00 14,7 9,6 9 5 29 15 NNE 1004,6 1 0,0
27.09.2020 15:00:00 14,5 9,2 15 8 28 15 NNE 1004,0 5 0,0
27.09.2020 14:00:00 14,4 9,7 14 8 30 16 N 1003,2 11 0,0
27.09.2020 13:00:00 15,4 10,6 20 11 34 18 NE 1002,2 24 0,0
27.09.2020 12:00:00 14,9 11,7 11 6 40 22 NNE 1001,1 1 0,0
27.09.2020 11:00:00 14,3 11,8 19 11 43 23 NNE 1000,1 1 0,0
27.09.2020 10:00:00 15,8 13,0 26 14 50 27 N 998,3 0 0,0
27.09.2020 09:00:00 15,4 13,4 31 17 60 33 N 997,2 0 0,0
27.09.2020 08:00:00 14,8 13,4 25 14 50 27 N 996,5 0 0,4
27.09.2020 07:00:00 14,0 13,0 23 12 56 30 NNW 996,1 0 0,9
27.09.2020 06:00:00 13,2 12,2 28 15 66 35 NNW 996,0 0 2,6
27.09.2020 05:00:00 12,4 11,5 27 15 56 30 NW 996,4 0 2,7
27.09.2020 04:00:00 11,8 10,9 21 11 45 24 NW 998,1 0 2,2
27.09.2020 03:00:00 11,8 10,7 21 11 49 27 NW 999,7 0 3,5
27.09.2020 02:00:00 11,9 10,9 18 10 36 20 NW 1000,6 0 5,9
27.09.2020 01:00:00 11,9 11,1 12 6 25 13 WNW 1001,2 0 2,6
27.09.2020 00:00:00 11,8 10,8 13 7 29 16 NNW 1001,7 0 3,4
26.09.2020 23:00:00 11,5 10,4 11 6 23 12 WNW 1002,3 0 0,7
26.09.2020 22:00:00 11,2 10,1 6 4 14 7 W 1002,6 0 0,0
26.09.2020 21:00:00 11,2 9,8 6 4 17 9 W 1002,5 0 0,0
26.09.2020 20:00:00 11,2 9,5 7 4 17 9 WNW 1002,5 0 0,2
26.09.2020 19:00:00 12,4 9,3 6 4 20 11 NNW 1002,3 15 0,1
26.09.2020 18:00:00 12,1 10,2 11 6 22 12 W 1002,1 18 0,0
26.09.2020 17:00:00 11,6 9,5 14 7 26 14 WSW 1001,9 38 0,0
26.09.2020 16:00:00 11,0 9,3 10 5 30 16 W 1002,2 16 0,0
26.09.2020 15:00:00 10,2 9,0 12 7 24 13 W 1002,4 11 0,6
26.09.2020 14:00:00 9,0 7,8 11 6 27 15 WSW 1001,9 1 1,0
26.09.2020 13:00:00 9,0 8,0 18 10 33 18 WSW 1001,9 0 7,0
26.09.2020 12:00:00 9,8 8,6 14 8 34 19 W 1001,8 0 0,3
26.09.2020 11:00:00 9,7 8,7 14 8 32 17 WNW 1001,4 0 1,4
26.09.2020 10:00:00 9,5 8,4 13 7 27 15 W 1000,6 0 1,4
26.09.2020 09:00:00 9,8 8,3 12 6 41 22 WNW 1000,1 2 1,4
26.09.2020 08:00:00 9,7 7,9 25 14 44 24 NW 999,6 0 1,3
26.09.2020 07:00:00 9,7 8,2 16 9 45 25 WNW 998,9 0 2,6
26.09.2020 06:00:00 9,8 8,9 16 9 39 21 W 998,5 0 4,5
26.09.2020 05:00:00 10,1 9,0 23 13 58 31 WNW 998,2 0 1,2
26.09.2020 04:00:00 10,0 8,6 28 15 52 28 W 997,6 0 2,2
26.09.2020 03:00:00 9,6 8,2 27 15 66 36 W 997,4 0 2,5
26.09.2020 02:00:00 9,3 7,9 25 14 60 32 W 997,5 0 0,6
26.09.2020 01:00:00 9,0 7,5 28 15 74 40 W 998,2 0 0,6
26.09.2020 00:00:00 9,4 7,5 31 17 59 32 W 998,8 0 0,8
25.09.2020 23:00:00 9,5 7,9 28 15 56 31 W 998,9 0 2,6
25.09.2020 22:00:00 9,5 8,0 28 15 58 31 W 998,6 0 0,9
25.09.2020 21:00:00 9,4 7,9 24 13 45 24 W 998,6 0 2,4
25.09.2020 20:00:00 9,6 8,0 22 12 46 25 W 999,0 0 2,1
25.09.2020 19:00:00 9,8 8,1 20 11 44 24 WSW 998,9 0 1,1
25.09.2020 18:00:00 10,0 8,1 20 11 47 25 W 998,7 0 1,2
25.09.2020 17:00:00 10,6 8,6 17 9 59 32 W 998,3 0 0,7
25.09.2020 16:00:00 11,5 8,2 19 11 42 23 W 997,7 15 1,0
25.09.2020 15:00:00 11,9 7,5 18 10 35 19 W 997,5 10 0,1
25.09.2020 14:00:00 12,2 7,3 14 8 27 15 W 997,0 18 0,0
25.09.2020 13:00:00 12,0 9,3 9 5 21 11 SSW 996,7 24 1,2
25.09.2020 12:00:00 10,7 7,2 12 7 30 16 SSW 996,9 0 0,0
25.09.2020 11:00:00 10,2 7,4 14 8 30 16 SSW 996,3 0 0,2
25.09.2020 10:00:00 9,9 6,5 15 8 35 19 S 995,8 0 0,0
25.09.2020 09:00:00 9,5 6,2 14 7 35 19 S 995,8 0 0,0
25.09.2020 08:00:00 9,1 5,9 14 8 37 20 S 995,9 0 0,0
25.09.2020 07:00:00 8,9 5,9 19 10 41 22 S 995,9 0 0,0
25.09.2020 06:00:00 8,2 5,7 21 11 41 22 S 996,1 0 0,0
25.09.2020 05:00:00 8,1 5,9 16 9 34 19 S 996,3 0 0,0
25.09.2020 04:00:00 8,8 6,6 16 9 34 18 SSW 996,7 0 0,0

tt = Température de l'air
td = dewpoint
ff = Vitesse du vent
fx = gusts
dd = Direction du vent
ppp = reduced air pressure
sd = Ensoleillement
rr = Quantités de précipitations

stations d'obs. à proximité